Al Rawdah — V7VM8 — position and weather

sailwx.info

Track history (hours):
 
Tides and Currents Weather Stations Pressure Air Temp Water Temp Dewpoint Dewpoint Depression Visibility Wind Speed Wind Dir Waves Ship Positions

Al Rawdah

Last reported at 2014-Aug-20 11:20 UTC. Time now 2014-Aug-22 13:50 UTC.
Position N 01°11' E 103°39'.

Length 307 m; draft 14 m.

Type: Ship (hazmat cat A). MMSI: 538004160.

Date/timePositionNaut miles runAvg speedWind from/ knotsBaromVisibWave heightAir tempDewpointWater temp
2014-Aug-20 11:20N 01°11' E 103°39'1013.2
2014-Aug-20 10:33N 01°11' E 103°49'1716.9
2014-Aug-20 09:33N 01°16' E 104°05'  
2014-Aug-16 19:33N 22°24' E 113°53'3 2.4
2014-Aug-16 18:29N 22°27' E 113°53'0 0.0
2014-Aug-16 17:17N 22°27' E 113°53'0 0.1
2014-Aug-16 16:29N 22°27' E 113°53'0 0.0
2014-Aug-16 15:29N 22°27' E 113°53'0 0.0
2014-Aug-16 14:29N 22°27' E 113°53'0 0.0
2014-Aug-16 13:29N 22°27' E 113°53'0 0.0
2014-Aug-16 12:29N 22°27' E 113°53'0 0.0
2014-Aug-16 11:29N 22°27' E 113°53'0 0.1
2014-Aug-16 10:29N 22°27' E 113°53'0 0.1
2014-Aug-16 09:29N 22°27' E 113°53'0 0.1
2014-Aug-16 08:23N 22°27' E 113°53'0 0.0
2014-Aug-16 07:23N 22°27' E 113°53'0 0.1
2014-Aug-16 06:29N 22°27' E 113°53'0 0.1
2014-Aug-16 05:29N 22°27' E 113°53'0 0.0
2014-Aug-16 04:17N 22°27' E 113°53'0 0.1
2014-Aug-16 03:29N 22°27' E 113°53'4 3.8
2014-Aug-16 02:33N 22°23' E 113°54'12 8.8
2014-Aug-16 01:11N 22°18' E 114°06'9 9.5
2014-Aug-16 00:14N 22°11' E 114°12'123 4.8
2014-Aug-14 22:29N 22°34' E 116°23'1111.7
2014-Aug-14 21:33N 22°37' E 116°34'2611.5
2014-Aug-14 19:16N 22°50' E 116°59'810.8
2014-Aug-14 18:30N 22°53' E 117°07'1010.9
2014-Aug-14 17:33N 23°02' E 117°14'2310.1
2014-Aug-14 15:17N 23°19' E 117°30'8 9.8
2014-Aug-14 14:30N 23°24' E 117°36'1010.5
2014-Aug-14 13:33N 23°29' E 117°45'1111.1
2014-Aug-14 12:32N 23°35' E 117°57'1211.9
2014-Aug-14 11:33N 23°41' E 118°07'1212.1
2014-Aug-14 10:33N 23°49' E 118°17'1211.7
2014-Aug-14 09:33N 23°56' E 118°27'1110.7
2014-Aug-14 08:33N 24°03' E 118°36'1714.7
2014-Aug-14 07:26N 24°13' E 118°51'1719.2
2014-Aug-14 06:33N 24°24' E 119°05'1919.0
2014-Aug-14 05:33N 24°35' E 119°21'33216.6
2014-Aug-13 09:30N 29°22' E 122°31'1919.6
2014-Aug-13 08:33N 29°39' E 122°24'1414.5
2014-Aug-13 07:33N 29°50' E 122°13'10 9.5
2014-Aug-13 06:33N 29°55' E 122°03'6 5.5
2014-Aug-13 05:23N 29°56' E 121°56'0 0.1
2014-Aug-13 04:29N 29°56' E 121°56'0 0.0
2014-Aug-13 03:29N 29°56' E 121°56'0 0.0
2014-Aug-13 02:32N 29°56' E 121°56'0 0.0
2014-Aug-13 01:32N 29°56' E 121°56'0 0.1
2014-Aug-13 00:32N 29°56' E 121°56'0 0.1
2014-Aug-12 23:29N 29°56' E 121°56'0 0.1
2014-Aug-12 22:32N 29°56' E 121°56'0 0.0
2014-Aug-12 21:32N 29°56' E 121°56'0 0.0
2014-Aug-12 20:32N 29°56' E 121°56'0 0.0
2014-Aug-12 19:29N 29°56' E 121°56'0 0.0
2014-Aug-12 18:32N 29°56' E 121°56'0 0.1
2014-Aug-12 17:32N 29°56' E 121°56'0 0.1
2014-Aug-12 16:32N 29°56' E 121°56'0 0.0
2014-Aug-12 15:29N 29°56' E 121°56'0 0.0
2014-Aug-12 14:32N 29°56' E 121°56'0 0.0
2014-Aug-12 13:29N 29°56' E 121°56'0 0.2
2014-Aug-12 12:33N 29°56' E 121°56'8 7.8
2014-Aug-12 11:33N 29°56' E 122°05'1212.5
2014-Aug-12 10:33N 29°47' E 122°16'1111.4
2014-Aug-12 09:34N 29°43' E 122°28'2018.3
2014-Aug-12 08:26N 29°47' E 122°51'1817.9
2014-Aug-12 07:27N 30°04' E 122°56'1616.1
2014-Aug-12 06:28N 30°20' E 122°56'1820.0
2014-Aug-12 05:34N 30°29' E 122°38'1716.9
2014-Aug-12 04:33N 30°33' E 122°19'12 2.5
2014-Aug-11 23:33N 30°36' E 122°05'0 0.0
2014-Aug-11 10:33N 30°36' E 122°05'9 8.6
2014-Aug-11 09:33N 30°33' E 122°14'9 9.5
2014-Aug-11 08:34N 30°32' E 122°25'4 4.2
2014-Aug-11 07:34N 30°32' E 122°30'7 6.9
2014-Aug-11 06:33N 30°29' E 122°37'0 0.3
2014-Aug-11 05:32N 30°29' E 122°37'0 0.2
2014-Aug-11 04:30N 30°29' E 122°37'0 0.2
2014-Aug-11 03:30N 30°29' E 122°37'0 0.1
2014-Aug-11 02:32N 30°29' E 122°37'0 0.0
2014-Aug-11 01:32N 30°29' E 122°37'0 0.1
2014-Aug-11 00:32N 30°29' E 122°37'0 0.1
2014-Aug-10 23:29N 30°29' E 122°37'0 0.2
2014-Aug-10 22:32N 30°28' E 122°37'0 0.1
2014-Aug-10 21:26N 30°29' E 122°37'0 0.1
2014-Aug-10 20:32N 30°29' E 122°37'0 0.0
2014-Aug-10 19:32N 30°29' E 122°37'0 0.1
2014-Aug-10 18:32N 30°29' E 122°37'0 0.0
2014-Aug-10 17:32N 30°29' E 122°37'0 0.1
2014-Aug-10 16:32N 30°29' E 122°37'0 0.2
2014-Aug-10 15:30N 30°29' E 122°37'0 0.2
2014-Aug-10 14:30N 30°29' E 122°37'0 0.1
2014-Aug-10 13:32N 30°29' E 122°37'0 0.0
2014-Aug-10 12:24N 30°29' E 122°37'0 0.2
2014-Aug-10 11:32N 30°29' E 122°37'  
Track history (hours):
 
Tides and Currents Weather Stations Pressure Air Temp Water Temp Dewpoint Dewpoint Depression Visibility Wind Speed Wind Dir Waves Ship Positions

Al Rawdah

Last reported at 2014-Aug-20 11:20 UTC. Time now 2014-Aug-22 13:50 UTC.
Position N 01°11' E 103°39'.

Length 307 m; draft 14 m.

Type: Ship (hazmat cat A). MMSI: 538004160.

Date/timePositionNaut miles runAvg speedWind from/ knotsBaromVisibWave heightAir tempDewpointWater temp
2014-Aug-20 11:20N 01°11' E 103°39'1013.2
2014-Aug-20 10:33N 01°11' E 103°49'1716.9
2014-Aug-20 09:33N 01°16' E 104°05'  
2014-Aug-16 19:33N 22°24' E 113°53'3 2.4
2014-Aug-16 18:29N 22°27' E 113°53'0 0.0
2014-Aug-16 17:17N 22°27' E 113°53'0 0.1
2014-Aug-16 16:29N 22°27' E 113°53'0 0.0
2014-Aug-16 15:29N 22°27' E 113°53'0 0.0
2014-Aug-16 14:29N 22°27' E 113°53'0 0.0
2014-Aug-16 13:29N 22°27' E 113°53'0 0.0
2014-Aug-16 12:29N 22°27' E 113°53'0 0.0
2014-Aug-16 11:29N 22°27' E 113°53'0 0.1
2014-Aug-16 10:29N 22°27' E 113°53'0 0.1
2014-Aug-16 09:29N 22°27' E 113°53'0 0.1
2014-Aug-16 08:23N 22°27' E 113°53'0 0.0
2014-Aug-16 07:23N 22°27' E 113°53'0 0.1
2014-Aug-16 06:29N 22°27' E 113°53'0 0.1
2014-Aug-16 05:29N 22°27' E 113°53'0 0.0
2014-Aug-16 04:17N 22°27' E 113°53'0 0.1
2014-Aug-16 03:29N 22°27' E 113°53'4 3.8
2014-Aug-16 02:33N 22°23' E 113°54'12 8.8
2014-Aug-16 01:11N 22°18' E 114°06'9 9.5
2014-Aug-16 00:14N 22°11' E 114°12'123 4.8
2014-Aug-14 22:29N 22°34' E 116°23'1111.7
2014-Aug-14 21:33N 22°37' E 116°34'2611.5
2014-Aug-14 19:16N 22°50' E 116°59'810.8
2014-Aug-14 18:30N 22°53' E 117°07'1010.9
2014-Aug-14 17:33N 23°02' E 117°14'2310.1
2014-Aug-14 15:17N 23°19' E 117°30'8 9.8
2014-Aug-14 14:30N 23°24' E 117°36'1010.5
2014-Aug-14 13:33N 23°29' E 117°45'1111.1
2014-Aug-14 12:32N 23°35' E 117°57'1211.9
2014-Aug-14 11:33N 23°41' E 118°07'1212.1
2014-Aug-14 10:33N 23°49' E 118°17'1211.7
2014-Aug-14 09:33N 23°56' E 118°27'1110.7
2014-Aug-14 08:33N 24°03' E 118°36'1714.7
2014-Aug-14 07:26N 24°13' E 118°51'1719.2
2014-Aug-14 06:33N 24°24' E 119°05'1919.0
2014-Aug-14 05:33N 24°35' E 119°21'33216.6
2014-Aug-13 09:30N 29°22' E 122°31'1919.6
2014-Aug-13 08:33N 29°39' E 122°24'1414.5
2014-Aug-13 07:33N 29°50' E 122°13'10 9.5
2014-Aug-13 06:33N 29°55' E 122°03'6 5.5
2014-Aug-13 05:23N 29°56' E 121°56'0 0.1
2014-Aug-13 04:29N 29°56' E 121°56'0 0.0
2014-Aug-13 03:29N 29°56' E 121°56'0 0.0
2014-Aug-13 02:32N 29°56' E 121°56'0 0.0
2014-Aug-13 01:32N 29°56' E 121°56'0 0.1
2014-Aug-13 00:32N 29°56' E 121°56'0 0.1
2014-Aug-12 23:29N 29°56' E 121°56'0 0.1
2014-Aug-12 22:32N 29°56' E 121°56'0 0.0
2014-Aug-12 21:32N 29°56' E 121°56'0 0.0
2014-Aug-12 20:32N 29°56' E 121°56'0 0.0
2014-Aug-12 19:29N 29°56' E 121°56'0 0.0
2014-Aug-12 18:32N 29°56' E 121°56'0 0.1
2014-Aug-12 17:32N 29°56' E 121°56'0 0.1
2014-Aug-12 16:32N 29°56' E 121°56'0 0.0
2014-Aug-12 15:29N 29°56' E 121°56'0 0.0
2014-Aug-12 14:32N 29°56' E 121°56'0 0.0
2014-Aug-12 13:29N 29°56' E 121°56'0 0.2
2014-Aug-12 12:33N 29°56' E 121°56'8 7.8
2014-Aug-12 11:33N 29°56' E 122°05'1212.5
2014-Aug-12 10:33N 29°47' E 122°16'1111.4
2014-Aug-12 09:34N 29°43' E 122°28'2018.3
2014-Aug-12 08:26N 29°47' E 122°51'1817.9
2014-Aug-12 07:27N 30°04' E 122°56'1616.1
2014-Aug-12 06:28N 30°20' E 122°56'1820.0
2014-Aug-12 05:34N 30°29' E 122°38'1716.9
2014-Aug-12 04:33N 30°33' E 122°19'12 2.5
2014-Aug-11 23:33N 30°36' E 122°05'0 0.0
2014-Aug-11 10:33N 30°36' E 122°05'9 8.6
2014-Aug-11 09:33N 30°33' E 122°14'9 9.5
2014-Aug-11 08:34N 30°32' E 122°25'4 4.2
2014-Aug-11 07:34N 30°32' E 122°30'7 6.9
2014-Aug-11 06:33N 30°29' E 122°37'0 0.3
2014-Aug-11 05:32N 30°29' E 122°37'0 0.2
2014-Aug-11 04:30N 30°29' E 122°37'0 0.2
2014-Aug-11 03:30N 30°29' E 122°37'0 0.1
2014-Aug-11 02:32N 30°29' E 122°37'0 0.0
2014-Aug-11 01:32N 30°29' E 122°37'0 0.1
2014-Aug-11 00:32N 30°29' E 122°37'0 0.1
2014-Aug-10 23:29N 30°29' E 122°37'0 0.2
2014-Aug-10 22:32N 30°28' E 122°37'0 0.1
2014-Aug-10 21:26N 30°29' E 122°37'0 0.1
2014-Aug-10 20:32N 30°29' E 122°37'0 0.0
2014-Aug-10 19:32N 30°29' E 122°37'0 0.1
2014-Aug-10 18:32N 30°29' E 122°37'0 0.0
2014-Aug-10 17:32N 30°29' E 122°37'0 0.1
2014-Aug-10 16:32N 30°29' E 122°37'0 0.2
2014-Aug-10 15:30N 30°29' E 122°37'0 0.2
2014-Aug-10 14:30N 30°29' E 122°37'0 0.1
2014-Aug-10 13:32N 30°29' E 122°37'0 0.0
2014-Aug-10 12:24N 30°29' E 122°37'0 0.2
2014-Aug-10 11:32N 30°29' E 122°37'  

Dump ship's entire track history